CheckWX is a tool to help pilots better visualize weather data.  It is not intended as a substitute for an official pre-flight weather briefing.

14:51:16 UTC

YBHM TAF
Hamilton Island Airport
Hamilton Island, Australia
TAF AMD YBHM 231114Z 2312/2324 11014KT 9999 SCT018 SCT030 TEMPO 2312/2324 9999 NSW BKN018

Mar-23@
12:00 UTC

Mar-23 @ 12:00 UTC

Mar-24@
00:00 UTC

Mar-24 @ 00:00 UTC

TAF AMD YBHM 231114Z 2312/2324 11014KT 9999 SCT018 SCT030
Wind
  • 110° at 14 KTS
Cloud Levels
  • Scattered at 1,800' AGL
  • Scattered at 3,000' AGL

Mar-23@
12:00 UTC

Mar-23 @ 12:00 UTC

Mar-24@
00:00 UTC

Mar-24 @ 00:00 UTC

TEMPO 2312/2324 9999 NSW BKN018

Temporary

Temporary Changes expected for less than half the time period

Conditions
No significant weather
Cloud Levels
  • Broken at 1,800' AGL